Time;durP1;ratioP1;P1;durP2;ratioP2;P2;SDS_P1;SDS_P2;PMS_P1;PMS_P2;Temp;Humidity;BMP_temperature;BMP_pressure;BME280_temperature;BME280_humidity;BME280_pressure;Samples;Min_cycle;Max_cycle;Signal;HPM_P1;HPM_P2
2022/11/30 00:01:18;;;;;;;42.88;16.38;;;6.70;99.90;;;;;;5076853;28;20025;-67
2022/11/30 00:03:47;;;;;;;28.08;14.57;;;6.70;99.90;;;;;;5077909;28;20060;-67
2022/11/30 00:06:21;;;;;;;34.65;15.85;;;6.70;99.90;;;;;;5076756;28;20071;-67
2022/11/30 00:08:57;;;;;;;33.97;16.80;;;6.70;99.90;;;;;;5077661;28;20024;-67
2022/11/30 00:11:27;;;;;;;28.02;14.85;;;6.70;99.90;;;;;;5077889;28;20678;-67
2022/11/30 00:13:54;;;;;;;31.88;16.85;;;6.70;99.90;;;;;;5077774;28;20055;-67
2022/11/30 00:16:22;;;;;;;32.10;15.38;;;6.70;99.90;;;;;;5077855;28;20028;-67
2022/11/30 00:18:50;;;;;;;30.73;16.00;;;6.70;99.90;;;;;;5076493;28;20048;-67
2022/11/30 00:21:17;;;;;;;29.17;15.07;;;6.70;99.90;;;;;;5077529;28;20436;-67
2022/11/30 00:23:46;;;;;;;28.75;15.25;;;6.70;99.90;;;;;;5078221;28;20103;-67
2022/11/30 00:26:16;;;;;;;26.83;14.68;;;6.70;99.90;;;;;;5077377;28;20354;-67
2022/11/30 00:28:44;;;;;;;30.65;15.63;;;6.70;99.90;;;;;;5077721;28;20029;-67
2022/11/30 00:31:14;;;;;;;29.60;16.05;;;6.70;99.90;;;;;;5077877;28;20417;-67
2022/11/30 00:33:41;;;;;;;27.05;13.70;;;6.70;99.90;;;;;;5078042;28;20054;-67
2022/11/30 00:36:20;;;;;;;27.40;14.13;;;6.70;99.90;;;;;;5077661;28;20036;-67
2022/11/30 00:38:49;;;;;;;30.33;14.65;;;6.70;99.90;;;;;;5077208;28;20024;-67
2022/11/30 00:41:18;;;;;;;27.42;14.07;;;6.70;99.90;;;;;;5077684;28;20047;-67
2022/11/30 00:43:45;;;;;;;24.15;12.50;;;6.70;99.90;;;;;;5077013;28;20090;-67
2022/11/30 00:46:13;;;;;;;24.33;13.10;;;6.70;99.90;;;;;;5077053;28;20024;-67
2022/11/30 00:48:41;;;;;;;25.23;12.98;;;6.70;99.90;;;;;;5077673;28;20316;-67
2022/11/30 00:51:09;;;;;;;23.63;12.75;;;6.70;99.90;;;;;;5077515;28;20365;-67
2022/11/30 00:53:37;;;;;;;22.10;11.82;;;6.80;99.90;;;;;;5077386;28;20020;-67
2022/11/30 00:56:05;;;;;;;23.30;12.77;;;6.80;99.90;;;;;;5076849;28;20111;-67
2022/11/30 00:58:32;;;;;;;23.05;11.75;;;6.80;99.90;;;;;;5077331;28;20075;-67
2022/11/30 01:01:00;;;;;;;18.98;10.98;;;6.80;99.90;;;;;;5096647;28;20060;-67
2022/11/30 01:03:27;;;;;;;23.88;11.90;;;6.80;99.90;;;;;;5098392;28;20347;-67
2022/11/30 01:05:54;;;;;;;20.70;11.68;;;6.80;99.90;;;;;;5097502;28;20031;-67
2022/11/30 01:08:24;;;;;;;25.35;12.95;;;6.80;99.90;;;;;;5079081;28;20050;-67
2022/11/30 01:10:56;;;;;;;27.40;13.27;;;6.80;99.90;;;;;;5097239;28;20456;-67
2022/11/30 01:13:24;;;;;;;26.08;12.77;;;6.80;99.90;;;;;;5097903;28;20032;-67
2022/11/30 01:15:52;;;;;;;22.92;12.25;;;6.70;99.90;;;;;;5096766;28;20059;-67
2022/11/30 01:18:19;;;;;;;22.67;11.82;;;6.70;99.90;;;;;;5097414;28;20020;-67
2022/11/30 01:20:46;;;;;;;21.70;12.20;;;6.70;99.90;;;;;;5096749;28;20028;-67
2022/11/30 01:23:14;;;;;;;23.38;12.15;;;6.70;99.90;;;;;;5097360;28;20035;-67
2022/11/30 01:25:41;;;;;;;20.65;11.50;;;6.70;99.90;;;;;;5096757;28;20365;-67
2022/11/30 01:28:09;;;;;;;22.73;12.25;;;6.70;99.90;;;;;;5079016;28;20420;-67
2022/11/30 01:30:37;;;;;;;24.23;12.68;;;6.70;99.90;;;;;;5078818;28;20031;-67
2022/11/30 01:33:05;;;;;;;23.98;12.30;;;6.70;99.90;;;;;;5079051;28;20411;-67
2022/11/30 01:35:32;;;;;;;25.23;12.48;;;6.80;99.90;;;;;;5078630;28;20028;-67
2022/11/30 01:37:59;;;;;;;21.85;12.13;;;6.80;99.90;;;;;;5096837;28;20023;-67
2022/11/30 01:40:26;;;;;;;21.38;11.15;;;6.80;99.90;;;;;;5078685;28;20024;-67
2022/11/30 01:42:54;;;;;;;21.35;10.60;;;6.80;99.90;;;;;;5096623;28;20031;-67
2022/11/30 01:45:22;;;;;;;22.58;11.65;;;6.80;99.90;;;;;;5097120;28;20142;-67
2022/11/30 01:47:54;;;;;;;20.35;11.23;;;6.80;99.90;;;;;;5097271;28;20301;-67
2022/11/30 01:50:31;;;;;;;21.30;11.82;;;6.80;99.90;;;;;;5078571;28;20023;-67
2022/11/30 01:52:58;;;;;;;;;;;6.80;99.90;;;;;;5096956;28;20420;-67
2022/11/30 01:55:35;;;;;;;20.70;11.82;;;6.80;99.90;;;;;;5099314;28;20255;-67
2022/11/30 01:58:06;;;;;;;24.67;13.52;;;6.80;99.90;;;;;;5101319;28;20526;-67
2022/11/30 02:00:33;;;;;;;17.15;10.13;;;6.80;99.90;;;;;;5100506;28;20119;-67
2022/11/30 02:03:24;;;;;;;18.85;10.77;;;6.80;99.90;;;;;;5100508;28;20028;-67
2022/11/30 02:05:52;;;;;;;23.25;10.77;;;6.80;99.90;;;;;;5100418;28;20027;-67
2022/11/30 02:08:20;;;;;;;23.70;11.63;;;6.80;99.90;;;;;;5101121;28;20027;-67
2022/11/30 02:10:58;;;;;;;27.77;13.77;;;6.80;99.90;;;;;;5100614;28;20030;-67
2022/11/30 02:13:53;;;;;;;25.55;13.35;;;6.80;99.90;;;;;;5100641;28;20106;-67
2022/11/30 02:16:47;;;;;;;27.45;12.55;;;6.80;99.90;;;;;;5100475;28;20028;-67
2022/11/30 02:19:24;;;;;;;24.73;12.52;;;6.80;99.90;;;;;;5100090;28;20027;-67
2022/11/30 02:22:12;;;;;;;27.17;14.02;;;6.80;99.90;;;;;;5100729;28;20016;-67
2022/11/30 02:24:42;;;;;;;26.00;13.02;;;6.80;99.90;;;;;;5100668;28;20106;-67
2022/11/30 02:27:42;;;;;;;23.98;11.55;;;6.80;99.90;;;;;;5082221;28;20031;-67
2022/11/30 02:30:18;;;;;;;27.63;11.80;;;6.80;99.90;;;;;;5100254;28;20043;-67
2022/11/30 02:32:59;;;;;;;30.13;12.90;;;6.80;99.90;;;;;;5099951;28;20059;-67
2022/11/30 02:35:34;;;;;;;32.60;14.32;;;6.80;99.90;;;;;;5100327;28;20028;-67
2022/11/30 02:38:03;;;;;;;25.35;12.95;;;6.80;99.90;;;;;;5099998;28;20416;-67
2022/11/30 02:40:30;;;;;;;28.00;12.38;;;6.80;99.90;;;;;;5100069;28;20457;-67
2022/11/30 02:43:01;;;;;;;29.15;13.70;;;6.80;99.90;;;;;;5100520;28;20463;-67
2022/11/30 02:45:59;;;;;;;27.55;13.00;;;6.80;99.90;;;;;;5099647;28;20028;-67
2022/11/30 02:48:42;;;;;;;28.20;13.63;;;6.80;99.90;;;;;;5099981;28;20027;-67
2022/11/30 02:51:14;;;;;;;33.83;15.02;;;6.80;99.90;;;;;;5099444;28;20035;-67
2022/11/30 02:53:41;;;;;;;31.10;15.48;;;6.80;99.90;;;;;;5099786;28;20020;-67
2022/11/30 02:56:08;;;;;;;32.83;13.40;;;6.80;99.90;;;;;;5081670;28;20320;-67
2022/11/30 02:58:36;;;;;;;38.42;17.23;;;6.80;99.90;;;;;;5099765;28;20078;-67
2022/11/30 03:01:03;;;;;;;30.77;15.57;;;6.80;99.90;;;;;;5099393;28;20048;-67
2022/11/30 03:03:31;;;;;;;39.83;16.98;;;6.80;99.90;;;;;;5081564;28;20020;-67
2022/11/30 03:05:58;;;;;;;34.63;15.70;;;6.80;99.90;;;;;;5099537;28;20483;-67
2022/11/30 03:08:25;;;;;;;33.58;16.20;;;6.80;99.90;;;;;;5081325;28;20039;-67
2022/11/30 03:10:52;;;;;;;37.10;16.63;;;6.80;99.90;;;;;;5099527;28;20039;-67
2022/11/30 03:13:20;;;;;;;35.88;15.55;;;6.80;99.90;;;;;;5099314;28;20028;-67
2022/11/30 03:15:47;;;;;;;29.35;15.40;;;6.80;99.90;;;;;;5099644;28;20024;-67
2022/11/30 03:18:15;;;;;;;31.80;15.13;;;6.80;99.90;;;;;;5099100;28;20086;-67
2022/11/30 03:20:42;;;;;;;31.10;14.57;;;6.80;99.90;;;;;;5098998;28;20412;-67
2022/11/30 03:23:10;;;;;;;28.95;14.52;;;6.70;99.90;;;;;;5081247;28;20028;-67
2022/11/30 03:25:37;;;;;;;31.98;15.32;;;6.70;99.90;;;;;;5098944;28;20049;-67
2022/11/30 03:28:05;;;;;;;31.90;15.48;;;6.70;99.90;;;;;;5099483;28;20016;-67
2022/11/30 03:30:32;;;;;;;30.35;15.85;;;6.70;99.90;;;;;;5098829;28;20321;-67
2022/11/30 03:33:00;;;;;;;32.97;15.02;;;6.70;99.90;;;;;;5081090;28;20035;-67
2022/11/30 03:35:27;;;;;;;31.85;14.15;;;6.70;99.90;;;;;;5098618;28;20063;-67
2022/11/30 03:37:54;;;;;;;33.05;14.88;;;6.70;99.90;;;;;;5099258;28;20024;-67
2022/11/30 03:40:22;;;;;;;34.85;16.67;;;6.70;99.90;;;;;;5099185;28;20024;-67
2022/11/30 03:42:49;;;;;;;29.70;15.13;;;6.70;99.90;;;;;;5080662;28;20340;-67
2022/11/30 03:45:17;;;;;;;30.15;15.73;;;6.70;99.90;;;;;;5099087;28;20024;-67
2022/11/30 03:47:44;;;;;;;33.10;15.73;;;6.70;99.90;;;;;;5098465;28;20035;-67
2022/11/30 03:50:11;;;;;;;32.13;15.13;;;6.70;99.90;;;;;;5080444;28;20028;-67
2022/11/30 03:52:39;;;;;;;29.20;14.68;;;6.70;99.90;;;;;;5098948;28;20016;-67
2022/11/30 03:55:07;;;;;;;33.40;14.82;;;6.80;99.90;;;;;;5098527;28;20323;-67
2022/11/30 03:57:34;;;;;;;34.80;15.20;;;6.70;99.90;;;;;;5098698;28;20367;-67
2022/11/30 04:00:01;;;;;;;32.80;14.60;;;6.70;99.90;;;;;;5098254;28;20098;-67
2022/11/30 04:02:29;;;;;;;30.38;14.60;;;6.70;99.90;;;;;;5098272;28;20024;-67
2022/11/30 04:04:57;;;;;;;25.67;13.38;;;6.70;99.90;;;;;;5098031;28;20297;-67
2022/11/30 04:07:24;;;;;;;27.05;13.32;;;6.80;99.90;;;;;;5098269;28;20024;-67
2022/11/30 04:09:51;;;;;;;28.10;13.48;;;6.70;99.90;;;;;;5098040;28;20100;-67
2022/11/30 04:12:19;;;;;;;30.17;14.30;;;6.70;99.90;;;;;;5098065;28;20024;-67
2022/11/30 04:14:46;;;;;;;28.75;13.65;;;6.70;99.90;;;;;;5098534;28;20069;-67
2022/11/30 04:17:13;;;;;;;25.45;13.07;;;6.70;99.90;;;;;;5097359;28;20111;-67
2022/11/30 04:19:41;;;;;;;30.38;13.23;;;6.70;99.90;;;;;;5097852;28;20181;-67
2022/11/30 04:22:09;;;;;;;26.30;12.90;;;6.70;99.90;;;;;;5098411;28;20020;-67
2022/11/30 04:24:36;;;;;;;25.00;12.02;;;6.70;99.90;;;;;;5097762;28;20046;-67
2022/11/30 04:27:03;;;;;;;27.90;12.57;;;6.70;99.90;;;;;;5098808;28;20024;-67
2022/11/30 04:29:31;;;;;;;26.25;13.40;;;6.70;99.90;;;;;;5097741;28;20047;-67
2022/11/30 04:31:58;;;;;;;29.10;13.88;;;6.70;99.90;;;;;;5097965;28;20023;-67
2022/11/30 04:34:27;;;;;;;27.13;12.90;;;6.70;99.90;;;;;;5097577;28;20050;-67
2022/11/30 04:36:54;;;;;;;25.17;13.35;;;6.70;99.90;;;;;;5098059;28;20107;-67
2022/11/30 04:39:22;;;;;;;26.88;12.48;;;6.70;99.90;;;;;;5097812;28;20034;-67
2022/11/30 04:41:50;;;;;;;28.08;13.38;;;6.70;99.90;;;;;;5097657;28;20415;-67
2022/11/30 04:44:17;;;;;;;28.00;13.85;;;6.70;99.90;;;;;;5098003;28;20328;-67
2022/11/30 04:46:44;;;;;;;24.98;12.30;;;6.70;99.90;;;;;;5098030;28;20078;-67
2022/11/30 04:49:11;;;;;;;25.38;12.40;;;6.70;99.90;;;;;;5097284;28;20024;-67
2022/11/30 04:51:39;;;;;;;21.42;11.40;;;6.70;99.90;;;;;;5098032;28;20024;-67
2022/11/30 04:54:07;;;;;;;22.67;11.27;;;6.70;99.90;;;;;;5097262;28;20049;-67
2022/11/30 04:56:35;;;;;;;23.73;11.40;;;6.80;99.90;;;;;;5079187;28;20024;-67
2022/11/30 04:59:03;;;;;;;23.55;11.00;;;6.70;99.90;;;;;;5075701;28;20068;-67
2022/11/30 05:01:30;;;;;;;22.67;11.02;;;6.70;99.90;;;;;;5075786;28;20387;-67
2022/11/30 05:03:58;;;;;;;23.67;10.90;;;6.70;99.90;;;;;;5076744;28;20413;-67
2022/11/30 05:06:26;;;;;;;21.52;11.18;;;6.70;99.90;;;;;;5077347;28;20028;-67
2022/11/30 05:08:53;;;;;;;25.20;11.20;;;6.70;99.90;;;;;;5076830;28;20029;-67
2022/11/30 05:11:21;;;;;;;21.50;10.63;;;6.70;99.90;;;;;;5076696;28;20107;-67
2022/11/30 05:13:49;;;;;;;21.67;10.02;;;6.70;99.90;;;;;;5077400;28;20043;-67
2022/11/30 05:16:16;;;;;;;21.73;10.73;;;6.70;99.90;;;;;;5076585;28;20025;-67
2022/11/30 05:18:44;;;;;;;21.05;10.25;;;6.70;99.90;;;;;;5076731;28;20028;-67
2022/11/30 05:21:11;;;;;;;24.33;9.45;;;6.70;99.90;;;;;;5076537;28;20024;-67
2022/11/30 05:23:39;;;;;;;17.55;8.13;;;6.70;99.90;;;;;;5077271;28;20027;-67
2022/11/30 05:26:06;;;;;;;22.63;10.40;;;6.70;99.90;;;;;;5077122;28;20052;-67
2022/11/30 05:28:34;;;;;;;22.80;11.15;;;6.70;99.90;;;;;;5076606;28;20025;-67
2022/11/30 05:31:05;;;;;;;26.83;12.05;;;6.70;99.90;;;;;;5076560;28;20028;-67
2022/11/30 05:33:33;;;;;;;26.90;12.55;;;6.70;99.90;;;;;;5076676;28;20021;-67
2022/11/30 05:36:00;;;;;;;30.27;12.73;;;6.70;99.90;;;;;;5076427;28;20052;-67
2022/11/30 05:38:27;;;;;;;32.65;14.48;;;6.70;99.90;;;;;;5077012;28;20301;-67
2022/11/30 05:41:04;;;;;;;33.88;14.70;;;6.70;99.90;;;;;;5076909;28;20123;-67
2022/11/30 05:43:31;;;;;;;28.17;14.57;;;6.60;99.90;;;;;;5077153;28;20091;-67
2022/11/30 05:46:04;;;;;;;35.60;14.65;;;6.60;99.90;;;;;;5076837;28;20030;-67
2022/11/30 05:48:32;;;;;;;32.47;14.13;;;6.60;99.90;;;;;;5076315;28;20075;-67
2022/11/30 05:51:17;;;;;;;34.42;13.98;;;6.60;99.90;;;;;;5076746;28;20343;-67
2022/11/30 05:53:45;;;;;;;28.65;12.48;;;6.60;99.90;;;;;;5076738;28;20034;-67
2022/11/30 05:56:16;;;;;;;27.38;12.70;;;6.60;99.90;;;;;;5076750;28;20028;-67
2022/11/30 05:58:45;;;;;;;27.98;13.43;;;6.50;99.90;;;;;;5079326;28;20405;-67
2022/11/30 06:01:27;;;;;;;29.02;13.10;;;6.50;99.90;;;;;;5096440;28;20024;-67
2022/11/30 06:03:54;;;;;;;33.83;13.93;;;6.50;99.90;;;;;;5078530;28;20024;-67
2022/11/30 06:06:23;;;;;;;32.90;12.98;;;6.50;99.90;;;;;;5096892;28;20030;-67
2022/11/30 06:08:50;;;;;;;29.48;14.00;;;6.50;99.90;;;;;;5078478;28;20060;-67
2022/11/30 06:11:17;;;;;;;32.05;12.52;;;6.50;99.90;;;;;;5096849;28;20028;-67
2022/11/30 06:13:45;;;;;;;43.13;14.30;;;6.50;99.90;;;;;;5096486;28;20483;-67
2022/11/30 06:16:12;;;;;;;45.55;12.77;;;6.50;99.90;;;;;;5078328;28;20020;-67
2022/11/30 06:18:39;;;;;;;40.88;12.93;;;6.50;99.90;;;;;;5096838;28;20023;-67
2022/11/30 06:21:10;;;;;;;38.88;12.43;;;6.50;99.90;;;;;;5096162;28;20032;-67
2022/11/30 06:23:37;;;;;;;72.50;14.60;;;6.50;99.90;;;;;;5096223;28;20365;-67
2022/11/30 06:26:06;;;;;;;70.50;13.82;;;6.50;99.90;;;;;;5096195;28;20020;-67
2022/11/30 06:28:35;;;;;;;51.45;13.15;;;6.50;99.90;;;;;;5096904;28;20020;-67
2022/11/30 06:31:04;;;;;;;42.13;13.18;;;6.50;99.90;;;;;;5096164;28;20031;-67
2022/11/30 06:33:32;;;;;;;47.40;12.63;;;6.50;99.90;;;;;;5078279;28;20028;-67
2022/11/30 06:35:59;;;;;;;60.25;13.00;;;6.40;99.90;;;;;;5096154;28;20294;-67
2022/11/30 06:38:27;;;;;;;42.53;13.85;;;6.40;99.90;;;;;;5096479;28;20024;-67
2022/11/30 06:41:03;;;;;;;42.58;13.05;;;6.40;99.90;;;;;;5097619;28;20042;-67
2022/11/30 06:43:34;;;;;;;56.13;11.82;;;6.40;99.90;;;;;;5099771;28;20020;-67
2022/11/30 06:46:02;;;;;;;36.17;11.07;;;6.40;99.90;;;;;;5081760;28;20332;-67
2022/11/30 06:48:30;;;;;;;48.00;10.43;;;6.40;99.90;;;;;;5100106;28;20435;-67
2022/11/30 06:50:59;;;;;;;114.82;15.68;;;6.40;99.90;;;;;;5099526;28;20028;-68
2022/11/30 06:53:26;;;;;;;36.25;11.43;;;6.40;99.90;;;;;;5099504;28;20024;-69
2022/11/30 06:55:53;;;;;;;76.88;13.50;;;6.40;99.90;;;;;;5099981;28;20081;-69
2022/11/30 06:58:21;;;;;;;55.92;12.75;;;6.40;99.90;;;;;;5081674;28;20471;-68
2022/11/30 07:00:49;;;;;;;50.65;11.02;;;6.30;99.90;;;;;;5099239;28;20187;-70
2022/11/30 07:03:17;;;;;;;50.58;12.27;;;6.30;99.90;;;;;;5099419;28;20098;-69
2022/11/30 07:05:47;;;;;;;61.53;14.88;;;6.40;99.90;;;;;;5099124;28;20044;-70
2022/11/30 07:08:16;;;;;;;47.55;10.80;;;6.40;99.90;;;;;;5099979;28;20089;-71
2022/11/30 07:10:46;;;;;;;39.88;10.27;;;6.40;99.90;;;;;;5100730;28;20028;-71
2022/11/30 07:13:16;;;;;;;59.88;12.50;;;6.40;99.90;;;;;;5081255;28;20035;-72
2022/11/30 07:15:44;;;;;;;38.78;10.30;;;6.40;99.90;;;;;;5081074;28;20024;-77
2022/11/30 07:18:11;;;;;;;38.25;11.10;;;6.40;99.90;;;;;;5081312;28;20438;-74
2022/11/30 07:20:39;;;;;;;87.57;14.18;;;6.40;99.90;;;;;;5099225;28;20020;-71
2022/11/30 07:26:05;;;;;;;70.55;12.73;;;6.40;99.90;;;;;;5099012;28;20174;-71
2022/11/30 07:28:41;;;;;;;51.95;12.25;;;6.40;99.90;;;;;;5099116;28;20309;-76
2022/11/30 07:31:24;;;;;;;62.83;12.38;;;6.40;99.90;;;;;;5099109;28;20081;-73
2022/11/30 07:33:52;;;;;;;50.72;11.38;;;6.40;99.90;;;;;;5099001;28;20020;-73
2022/11/30 07:36:21;;;;;;;28.52;10.27;;;6.30;99.90;;;;;;5098697;28;20324;-76
2022/11/30 07:38:49;;;;;;;39.50;9.23;;;6.30;99.90;;;;;;5099304;28;20020;-74
2022/11/30 07:41:17;;;;;;;50.08;11.80;;;6.30;99.90;;;;;;5098636;28;20074;-74
2022/11/30 07:43:45;;;;;;;24.73;10.68;;;6.30;99.90;;;;;;5080669;28;20039;-75
2022/11/30 07:46:14;;;;;;;32.72;10.68;;;6.30;99.90;;;;;;5099139;28;20048;-75
2022/11/30 07:48:42;;;;;;;28.08;10.00;;;6.30;99.90;;;;;;5098521;28;20024;-75
2022/11/30 07:51:15;;;;;;;31.50;12.15;;;6.20;99.90;;;;;;5098608;28;20024;-75
2022/11/30 07:53:43;;;;;;;31.55;10.07;;;6.20;99.90;;;;;;5098387;28;20024;-75
2022/11/30 07:56:14;;;;;;;23.90;8.82;;;6.30;99.90;;;;;;5098557;28;20020;-75
2022/11/30 07:58:42;;;;;;;32.85;10.27;;;6.20;99.90;;;;;;5098388;28;20313;-71
2022/11/30 08:01:13;;;;;;;27.48;10.65;;;6.30;99.90;;;;;;5098830;28;20028;-74
2022/11/30 08:03:40;;;;;;;29.50;10.55;;;6.20;99.90;;;;;;5098704;28;20020;-69
2022/11/30 08:06:13;;;;;;;20.00;10.02;;;6.20;99.90;;;;;;5098095;28;20413;-68
2022/11/30 08:08:43;;;;;;;24.17;10.20;;;6.20;99.90;;;;;;5098205;28;20038;-69
2022/11/30 08:11:15;;;;;;;21.35;9.88;;;6.20;99.90;;;;;;5098416;28;20081;-69
2022/11/30 08:13:43;;;;;;;23.60;9.80;;;6.20;99.90;;;;;;5098488;28;20039;-70
2022/11/30 08:16:14;;;;;;;19.27;8.85;;;6.20;99.90;;;;;;5079947;28;20032;-72
2022/11/30 08:18:42;;;;;;;17.80;7.95;;;6.30;99.90;;;;;;5098002;28;20381;-68
2022/11/30 08:21:12;;;;;;;18.40;7.82;;;6.30;99.90;;;;;;5097992;28;20047;-74
2022/11/30 08:23:45;;;;;;;21.63;6.78;;;6.30;99.90;;;;;;5098343;28;20316;-68
2022/11/30 08:26:20;;;;;;;16.30;7.97;;;6.30;99.90;;;;;;5080398;28;20331;-76
2022/11/30 08:28:49;;;;;;;13.15;7.13;;;6.20;99.90;;;;;;5097816;28;20028;-68
2022/11/30 08:31:29;;;;;;;16.17;8.00;;;6.20;99.90;;;;;;5097722;28;20378;-67
2022/11/30 08:33:59;;;;;;;14.35;7.60;;;6.20;99.90;;;;;;5098361;28;20404;-67
2022/11/30 08:36:28;;;;;;;12.30;6.75;;;6.30;99.90;;;;;;5097537;28;20055;-67
2022/11/30 08:38:58;;;;;;;20.48;6.75;;;6.30;99.90;;;;;;5097610;28;20474;-67
2022/11/30 08:42:14;;;;;;;13.85;6.50;;;6.30;99.90;;;;;;5097516;28;20107;-67
2022/11/30 08:44:41;;;;;;;16.27;6.68;;;6.30;99.90;;;;;;5097504;28;20023;-67
2022/11/30 08:47:09;;;;;;;14.88;6.60;;;6.20;99.90;;;;;;5097452;28;20038;-67
2022/11/30 08:49:37;;;;;;;11.80;6.57;;;6.30;99.90;;;;;;5097283;28;20027;-67
2022/11/30 08:52:04;;;;;;;14.55;6.97;;;6.30;99.90;;;;;;5079397;28;20028;-67
2022/11/30 08:54:31;;;;;;;12.32;6.35;;;6.30;99.90;;;;;;5097321;28;20031;-67
2022/11/30 08:56:58;;;;;;;15.80;6.97;;;6.30;99.90;;;;;;5079168;28;20024;-67
2022/11/30 08:59:26;;;;;;;10.98;6.40;;;6.30;99.90;;;;;;5097017;28;20076;-68
2022/11/30 09:01:53;;;;;;;15.65;7.20;;;6.30;99.90;;;;;;5097724;28;20095;-68
2022/11/30 09:04:20;;;;;;;13.35;7.35;;;6.30;99.90;;;;;;5096855;28;20024;-67
2022/11/30 09:06:47;;;;;;;17.23;7.15;;;6.30;99.90;;;;;;5097475;28;20032;-68
2022/11/30 09:09:15;;;;;;;17.73;6.63;;;6.30;99.90;;;;;;5079083;28;20028;-67
2022/11/30 09:11:43;;;;;;;12.50;5.88;;;6.30;99.90;;;;;;5097638;28;20128;-67
2022/11/30 09:14:12;;;;;;;15.90;7.72;;;6.30;99.90;;;;;;5097002;28;20058;-67
2022/11/30 09:16:39;;;;;;;17.48;6.18;;;6.30;99.90;;;;;;5097121;28;20024;-67
2022/11/30 09:19:08;;;;;;;17.75;7.20;;;6.30;99.90;;;;;;5097629;28;20333;-67
2022/11/30 09:21:35;;;;;;;16.38;7.28;;;6.20;99.90;;;;;;5096896;28;20031;-68
2022/11/30 09:24:02;;;;;;;16.90;6.38;;;6.20;99.90;;;;;;5097175;28;20021;-68
2022/11/30 09:26:30;;;;;;;13.60;6.45;;;6.20;99.90;;;;;;5078837;28;20446;-68
2022/11/30 09:28:57;;;;;;;45.33;8.15;;;6.20;99.90;;;;;;5096988;28;20106;-67
2022/11/30 09:31:26;;;;;;;16.30;6.78;;;6.20;99.90;;;;;;5096784;28;20046;-67
2022/11/30 09:33:56;;;;;;;15.80;7.20;;;6.20;99.90;;;;;;5097278;28;20020;-67
2022/11/30 09:36:28;;;;;;;18.98;9.32;;;6.20;99.90;;;;;;5096635;28;20320;-67
2022/11/30 09:38:56;;;;;;;16.98;6.97;;;6.20;99.90;;;;;;5096770;28;20016;-68
2022/11/30 09:41:36;;;;;;;13.50;6.82;;;6.20;99.90;;;;;;5096657;28;20111;-67
2022/11/30 09:44:30;;;;;;;15.68;6.80;;;6.20;99.90;;;;;;5097171;28;20027;-70
2022/11/30 09:47:15;;;;;;;16.63;7.35;;;6.20;99.90;;;;;;5097271;28;20024;-70
2022/11/30 09:49:45;;;;;;;42.33;9.55;;;6.20;99.90;;;;;;5096904;28;20028;-67
2022/11/30 09:52:33;;;;;;;21.63;8.85;;;6.20;99.90;;;;;;5096621;28;20093;-67
2022/11/30 09:55:07;;;;;;;25.88;8.93;;;6.30;99.90;;;;;;5096757;28;20371;-70
2022/11/30 09:57:51;;;;;;;16.35;8.93;;;6.30;99.90;;;;;;5097088;28;20099;-70
2022/11/30 10:00:23;;;;;;;15.57;8.40;;;6.30;99.90;;;;;;5096628;28;20051;-69
2022/11/30 10:02:53;;;;;;;16.00;7.55;;;6.30;99.90;;;;;;5096459;28;20327;-70
2022/11/30 10:05:45;;;;;;;19.25;7.78;;;6.30;99.90;;;;;;5078453;28;20057;-69
2022/11/30 10:08:22;;;;;;;18.30;7.70;;;6.30;99.90;;;;;;5096751;28;20020;-69
2022/11/30 10:11:24;;;;;;;15.90;8.00;;;6.30;99.90;;;;;;5097177;28;20024;-69
2022/11/30 10:14:28;;;;;;;14.25;7.88;;;6.30;99.90;;;;;;5096570;28;20097;-69
2022/11/30 10:17:25;;;;;;;16.40;7.18;;;6.30;99.90;;;;;;5082162;28;20024;-69
2022/11/30 10:20:07;;;;;;;13.68;6.30;;;6.30;99.90;;;;;;5058239;28;20306;-68
2022/11/30 10:22:48;;;;;;;19.85;8.07;;;6.30;99.90;;;;;;5101084;28;20027;-68
2022/11/30 10:25:25;;;;;;;14.32;7.57;;;6.30;99.90;;;;;;5100715;28;20021;-67
2022/11/30 10:27:55;;;;;;;17.15;8.20;;;6.30;99.90;;;;;;5100164;28;20020;-69
2022/11/30 10:30:41;;;;;;;14.98;8.68;;;6.30;99.90;;;;;;5100097;28;20051;-68
2022/11/30 10:33:24;;;;;;;16.23;8.30;;;6.40;99.90;;;;;;5100123;28;20104;-68
2022/11/30 10:35:55;;;;;;;25.73;8.80;;;6.40;99.90;;;;;;5100109;28;20054;-68
2022/11/30 10:38:52;;;;;;;23.08;9.90;;;6.40;99.90;;;;;;5099950;28;20020;-68
2022/11/30 10:41:26;;;;;;;18.30;8.45;;;6.50;99.90;;;;;;5098476;28;20036;-68
2022/11/30 10:44:11;;;;;;;18.98;9.43;;;6.50;99.90;;;;;;5099842;28;20024;-69
2022/11/30 10:46:47;;;;;;;20.73;9.57;;;6.50;99.90;;;;;;5099941;28;20424;-67
2022/11/30 10:49:21;;;;;;;20.83;6.47;;;6.60;99.90;;;;;;5099673;28;20020;-68
2022/11/30 10:51:58;;;;;;;21.25;8.60;;;6.60;99.90;;;;;;5099626;28;20309;-67
2022/11/30 10:54:25;;;;;;;22.55;8.93;;;6.60;99.90;;;;;;5081633;28;20424;-67
2022/11/30 10:56:53;;;;;;;21.05;10.52;;;6.60;99.90;;;;;;5100234;28;20073;-68
2022/11/30 10:59:34;;;;;;;20.17;10.23;;;6.60;99.90;;;;;;5099327;28;20178;-67
2022/11/30 11:02:05;;;;;;;20.95;8.75;;;6.60;99.90;;;;;;5099511;28;20027;-74
2022/11/30 11:04:33;;;;;;;20.20;8.40;;;6.70;99.90;;;;;;5099358;28;20404;-69
2022/11/30 11:07:14;;;;;;;21.58;9.60;;;6.70;99.90;;;;;;5099474;28;20024;-67
2022/11/30 11:09:50;;;;;;;24.83;9.05;;;6.70;99.90;;;;;;5099291;28;20442;-67
2022/11/30 11:12:17;;;;;;;17.38;8.27;;;6.70;99.90;;;;;;5099340;28;20058;-68
2022/11/30 11:14:45;;;;;;;18.08;9.55;;;6.60;99.90;;;;;;5099767;28;20027;-69
2022/11/30 11:17:20;;;;;;;19.10;9.38;;;6.60;99.90;;;;;;5099356;28;20050;-67
2022/11/30 11:19:49;;;;;;;19.70;9.52;;;6.70;99.90;;;;;;5098974;28;20028;-67
2022/11/30 11:22:24;;;;;;;21.80;9.20;;;6.70;99.90;;;;;;5099117;28;20024;-67
2022/11/30 11:25:09;;;;;;;16.50;9.53;;;6.70;99.90;;;;;;5099663;28;20073;-67
2022/11/30 11:27:36;;;;;;;20.98;10.02;;;6.70;99.90;;;;;;5098832;28;20273;-67
2022/11/30 11:30:24;;;;;;;21.35;10.18;;;6.60;99.90;;;;;;5098965;28;20082;-68
2022/11/30 11:33:21;;;;;;;20.48;10.23;;;6.60;99.90;;;;;;5099140;28;20312;-75
2022/11/30 11:36:06;;;;;;;17.52;9.07;;;6.60;99.90;;;;;;5097378;28;20089;-67
2022/11/30 11:38:47;;;;;;;25.60;10.52;;;6.60;99.90;;;;;;5099507;28;20056;-71
2022/11/30 11:41:37;;;;;;;24.30;10.38;;;6.60;99.90;;;;;;5099295;28;20024;-70
2022/11/30 11:44:11;;;;;;;19.95;10.05;;;6.60;99.90;;;;;;5098641;28;20086;-70
2022/11/30 11:46:57;;;;;;;24.23;10.52;;;6.60;99.90;;;;;;5099192;28;20099;-72
2022/11/30 11:49:27;;;;;;;26.67;10.87;;;6.50;99.90;;;;;;5098544;28;20024;-69
2022/11/30 11:52:09;;;;;;;24.60;10.00;;;6.50;99.90;;;;;;5098704;28;20055;-70
2022/11/30 11:54:59;;;;;;;21.50;11.13;;;6.50;99.90;;;;;;5099003;28;20024;-66
2022/11/30 11:57:48;;;;;;;23.45;10.98;;;6.50;99.90;;;;;;5098886;28;20019;-68
2022/11/30 12:00:24;;;;;;;22.58;11.13;;;6.50;99.90;;;;;;5098144;28;20052;-68
2022/11/30 12:03:14;;;;;;;22.67;10.40;;;6.50;99.90;;;;;;5098411;28;20016;-68
2022/11/30 12:06:02;;;;;;;23.10;10.25;;;6.50;99.90;;;;;;5098094;28;20023;-68
2022/11/30 12:09:19;;;;;;;22.13;10.85;;;6.50;99.90;;;;;;5098521;28;20031;-69
2022/11/30 12:11:48;;;;;;;22.10;10.35;;;6.50;99.90;;;;;;5054277;28;20374;-67
2022/11/30 12:14:18;;;;;;;26.95;11.50;;;6.50;99.90;;;;;;5098039;28;20027;-67
2022/11/30 12:17:07;;;;;;;20.52;9.93;;;6.50;99.90;;;;;;5097932;28;20034;-67
2022/11/30 12:19:57;;;;;;;26.00;10.38;;;6.50;99.90;;;;;;5080765;28;20024;-67
2022/11/30 12:22:43;;;;;;;26.05;10.75;;;6.50;99.90;;;;;;5098612;28;20024;-68
2022/11/30 12:25:25;;;;;;;21.52;10.00;;;6.50;99.90;;;;;;5097866;28;20312;-68
2022/11/30 12:28:17;;;;;;;22.90;10.45;;;6.40;99.90;;;;;;5079859;28;20032;-68
2022/11/30 12:31:25;;;;;;;22.10;10.80;;;6.40;99.90;;;;;;5098309;28;20107;-69
2022/11/30 12:34:10;;;;;;;23.85;13.10;;;6.40;99.90;;;;;;5097832;28;20102;-69
2022/11/30 12:37:00;;;;;;;24.55;13.45;;;6.30;99.90;;;;;;5079601;28;20024;-68
2022/11/30 12:39:45;;;;;;;24.13;10.70;;;6.30;99.90;;;;;;5097600;28;20404;-80
2022/11/30 12:42:30;;;;;;;27.25;12.82;;;6.30;99.90;;;;;;5098300;28;20054;-68
2022/11/30 12:45:40;;;;;;;25.25;11.80;;;6.20;99.90;;;;;;5096431;28;20026;-71
2022/11/30 12:48:22;;;;;;;23.23;10.98;;;6.20;99.90;;;;;;5097469;28;20099;-71
2022/11/30 12:51:02;;;;;;;25.70;10.55;;;6.20;99.90;;;;;;5097841;28;20416;-68
2022/11/30 12:53:46;;;;;;;38.38;16.45;;;6.20;99.90;;;;;;5097519;28;20328;-67
2022/11/30 12:56:32;;;;;;;33.10;14.82;;;6.20;99.90;;;;;;5097206;28;20031;-69
2022/11/30 12:59:18;;;;;;;36.25;15.05;;;6.20;99.90;;;;;;5097571;28;20023;-67
2022/11/30 13:02:15;;;;;;;33.58;15.80;;;6.20;99.90;;;;;;5097453;28;20478;-78
2022/11/30 13:04:54;;;;;;;31.05;13.95;;;6.20;99.90;;;;;;5079122;28;20028;-78
2022/11/30 13:07:34;;;;;;;32.38;11.70;;;6.20;99.90;;;;;;5097985;28;20313;-70
2022/11/30 13:10:32;;;;;;;23.23;11.18;;;6.20;99.90;;;;;;5097301;28;20479;-68
2022/11/30 13:13:03;;;;;;;32.90;10.88;;;6.20;99.90;;;;;;5079209;28;20492;-68